createdAt,value
2023-04-20T00:00:18.641Z,4.74
2023-04-20T00:01:18.626Z,4.74
2023-04-20T00:02:18.700Z,4.67
2023-04-20T00:03:18.776Z,4.74
2023-04-20T00:04:18.624Z,4.72
2023-04-20T00:05:18.642Z,4.71
2023-04-20T00:06:18.605Z,4.61
2023-04-20T00:07:18.669Z,4.67
2023-04-20T00:08:18.570Z,4.56
2023-04-20T00:09:18.811Z,4.65
2023-04-20T00:10:18.606Z,4.55
2023-04-20T00:11:18.543Z,4.57
2023-04-20T00:12:18.598Z,4.53
2023-04-20T00:13:18.538Z,4.52
2023-04-20T00:14:18.522Z,4.55
2023-04-20T00:15:18.554Z,4.45
2023-04-20T00:16:18.534Z,4.42
2023-04-20T00:17:18.628Z,4.43
2023-04-20T00:18:18.508Z,4.41
2023-04-20T00:19:18.630Z,4.45
2023-04-20T00:20:18.451Z,4.43
2023-04-20T00:21:18.458Z,4.39
2023-04-20T00:22:18.471Z,4.43
2023-04-20T00:23:18.452Z,4.41
2023-04-20T00:24:18.444Z,4.41
2023-04-20T00:25:18.458Z,4.36
2023-04-20T00:26:18.422Z,4.42
2023-04-20T00:27:18.446Z,4.25
2023-04-20T00:28:18.401Z,4.39
2023-04-20T00:29:18.632Z,4.36
2023-04-20T00:30:18.378Z,4.31
2023-04-20T00:31:18.436Z,4.24
2023-04-20T00:32:18.386Z,4.44
2023-04-20T00:33:18.370Z,4.37
2023-04-20T00:34:18.367Z,4.28
2023-04-20T00:35:18.382Z,4.21
2023-04-20T00:36:18.404Z,4.20
2023-04-20T00:37:18.415Z,4.26
2023-04-20T00:38:18.444Z,4.17
2023-04-20T00:39:18.650Z,4.21
2023-04-20T00:40:18.447Z,4.24
2023-04-20T00:41:18.493Z,4.16
2023-04-20T00:42:18.489Z,4.15
2023-04-20T00:43:18.519Z,4.10
2023-04-20T00:44:18.553Z,4.18
2023-04-20T00:45:18.537Z,4.10
2023-04-20T00:46:18.636Z,4.13
2023-04-20T00:47:18.656Z,4.09
2023-04-20T00:48:18.622Z,4.00
2023-04-20T00:49:18.952Z,4.00
2023-04-20T00:50:18.701Z,4.03
2023-04-20T00:51:18.704Z,4.09
2023-04-20T00:52:18.694Z,4.01
2023-04-20T00:53:18.756Z,3.99
2023-04-20T00:54:18.742Z,4.02
2023-04-20T00:55:18.738Z,3.99
2023-04-20T00:56:18.781Z,3.93
2023-04-20T00:57:18.797Z,3.96
2023-04-20T00:58:18.846Z,3.90
2023-04-20T00:59:19.009Z,3.94
2023-04-20T01:00:18.909Z,3.83
2023-04-20T01:01:18.928Z,3.83
2023-04-20T01:02:18.957Z,3.89
2023-04-20T01:03:19.163Z,3.85
2023-04-20T01:04:19.130Z,3.85
2023-04-20T01:05:19.009Z,3.90
2023-04-20T01:06:19.018Z,3.86
2023-04-20T01:07:19.087Z,3.75
2023-04-20T01:08:19.089Z,3.80
2023-04-20T01:09:19.383Z,3.74
2023-04-20T01:10:19.143Z,3.86
2023-04-20T01:11:19.137Z,3.69
2023-04-20T01:12:19.212Z,3.74
2023-04-20T01:13:19.181Z,3.73
2023-04-20T01:14:19.256Z,3.78
2023-04-20T01:15:19.253Z,3.76
2023-04-20T01:16:19.310Z,3.71
2023-04-20T01:17:19.340Z,3.73
2023-04-20T01:18:19.511Z,3.66
2023-04-20T01:19:19.491Z,3.67
2023-04-20T01:20:19.420Z,3.68
2023-04-20T01:21:19.412Z,3.70
2023-04-20T01:22:19.486Z,3.67
2023-04-20T01:23:19.474Z,3.63
2023-04-20T01:24:19.527Z,3.66
2023-04-20T01:25:19.556Z,3.59
2023-04-20T01:26:19.555Z,3.53
2023-04-20T01:27:19.592Z,3.57
2023-04-20T01:28:19.637Z,3.52
2023-04-20T01:29:19.711Z,3.53
2023-04-20T01:30:19.699Z,3.62
2023-04-20T01:31:19.701Z,3.49
2023-04-20T01:32:19.718Z,3.53
2023-04-20T01:33:19.782Z,3.48
2023-04-20T01:34:19.795Z,3.49
2023-04-20T01:35:19.802Z,3.47
2023-04-20T01:36:19.800Z,3.42
2023-04-20T01:37:19.833Z,3.50
2023-04-20T01:38:19.860Z,3.46
2023-04-20T01:39:20.190Z,3.46
2023-04-20T01:40:19.921Z,3.45
2023-04-20T01:41:19.952Z,3.46
2023-04-20T01:42:19.966Z,3.41
2023-04-20T01:43:20.008Z,3.42
2023-04-20T01:44:20.064Z,3.44
2023-04-20T01:45:20.068Z,3.41
2023-04-20T01:46:20.107Z,3.33
2023-04-20T01:47:20.103Z,3.40
2023-04-20T01:48:20.135Z,3.42
2023-04-20T01:49:20.168Z,3.32
2023-04-20T01:50:20.189Z,3.36
2023-04-20T01:51:20.196Z,3.44
2023-04-20T01:52:20.209Z,3.30
2023-04-20T01:53:20.264Z,3.36
2023-04-20T01:54:20.295Z,3.31
2023-04-20T01:55:20.397Z,3.30
2023-04-20T01:56:20.350Z,3.33
2023-04-20T01:57:20.366Z,3.27
2023-04-20T01:58:20.401Z,3.30
2023-04-20T01:59:20.414Z,3.30
2023-04-20T02:00:20.449Z,3.26
2023-04-20T02:01:20.540Z,3.23
2023-04-20T02:02:20.630Z,3.27
2023-04-20T02:03:20.562Z,3.22
2023-04-20T02:04:20.602Z,3.24
2023-04-20T02:05:20.599Z,3.21
2023-04-20T02:06:20.601Z,3.17
2023-04-20T02:07:20.631Z,3.19
2023-04-20T02:08:20.682Z,3.15
2023-04-20T02:09:20.686Z,3.17
2023-04-20T02:10:20.695Z,3.13
2023-04-20T02:11:20.702Z,3.18
2023-04-20T02:12:20.742Z,3.16
2023-04-20T02:13:20.782Z,3.15
2023-04-20T02:14:20.822Z,3.20
2023-04-20T02:15:20.812Z,3.12
2023-04-20T02:16:20.863Z,3.07
2023-04-20T02:17:21.061Z,3.16
2023-04-20T02:18:20.921Z,3.07
2023-04-20T02:19:20.967Z,3.07
2023-04-20T02:20:20.965Z,3.12
2023-04-20T02:21:21.032Z,3.06
2023-04-20T02:22:21.020Z,3.03
2023-04-20T02:23:21.083Z,3.14
2023-04-20T02:24:21.097Z,3.05
2023-04-20T02:25:21.109Z,3.06
2023-04-20T02:26:21.149Z,3.02
2023-04-20T02:27:21.191Z,3.02
2023-04-20T02:28:21.217Z,3.04
2023-04-20T02:29:21.237Z,3.01
2023-04-20T02:30:21.276Z,3.04
2023-04-20T02:31:21.393Z,3.02
2023-04-20T02:32:21.358Z,2.99
2023-04-20T02:33:21.344Z,2.98
2023-04-20T02:34:21.437Z,2.99
2023-04-20T02:35:21.437Z,2.90
2023-04-20T02:36:21.454Z,2.99
2023-04-20T02:37:21.474Z,2.99
2023-04-20T02:38:21.581Z,2.96
2023-04-20T02:39:21.576Z,2.94
2023-04-20T02:40:21.630Z,2.94
2023-04-20T02:41:21.619Z,2.93
2023-04-20T02:42:21.685Z,2.92
2023-04-20T02:43:21.693Z,2.84
2023-04-20T02:44:21.712Z,2.96
2023-04-20T02:45:21.758Z,2.82
2023-04-20T02:46:21.831Z,2.86
2023-04-20T02:47:21.853Z,2.86
2023-04-20T02:48:21.888Z,2.84
2023-04-20T02:49:21.906Z,2.91
2023-04-20T02:50:21.922Z,2.81
2023-04-20T02:51:21.986Z,2.82
2023-04-20T02:52:22.053Z,2.86
2023-04-20T02:53:22.085Z,2.83
2023-04-20T02:54:22.051Z,2.84
2023-04-20T02:55:22.103Z,2.80
2023-04-20T02:56:22.139Z,2.83
2023-04-20T02:57:22.186Z,2.85
2023-04-20T02:58:22.265Z,2.78
2023-04-20T02:59:22.227Z,2.78
2023-04-20T03:00:22.275Z,2.82
2023-04-20T03:01:22.343Z,2.82
2023-04-20T03:02:22.652Z,2.74
2023-04-20T03:03:22.464Z,2.74
2023-04-20T03:04:22.452Z,2.77
2023-04-20T03:05:22.465Z,2.70
2023-04-20T03:06:22.484Z,2.75
2023-04-20T03:07:22.511Z,2.66
2023-04-20T03:08:22.562Z,2.74
2023-04-20T03:09:22.553Z,2.76
2023-04-20T03:10:22.608Z,2.72
2023-04-20T03:11:22.643Z,2.70
2023-04-20T03:12:22.684Z,2.64
2023-04-20T03:13:22.751Z,2.70
2023-04-20T03:14:22.770Z,2.61
2023-04-20T03:15:22.816Z,2.71
2023-04-20T03:16:22.896Z,2.66
2023-04-20T03:17:22.880Z,2.60
2023-04-20T03:18:22.938Z,2.65
2023-04-20T03:19:22.989Z,2.62
2023-04-20T03:20:23.021Z,2.63
2023-04-20T03:21:23.074Z,2.63
2023-04-20T03:22:23.096Z,2.59
2023-04-20T03:23:23.197Z,2.63
2023-04-20T03:24:23.155Z,2.62
2023-04-20T03:25:23.220Z,2.53
2023-04-20T03:26:23.261Z,2.54
2023-04-20T03:27:23.309Z,2.54
2023-04-20T03:28:23.354Z,2.53
2023-04-20T03:29:23.366Z,2.52
2023-04-20T03:30:23.401Z,2.59
2023-04-20T03:31:23.498Z,2.46
2023-04-20T03:32:23.508Z,2.48
2023-04-20T03:33:23.527Z,2.54
2023-04-20T03:34:23.562Z,2.60
2023-04-20T03:35:23.605Z,2.48
2023-04-20T03:36:23.657Z,2.53
2023-04-20T03:37:23.692Z,2.50
2023-04-20T03:38:23.717Z,2.50
2023-04-20T03:39:23.779Z,2.43
2023-04-20T03:40:23.785Z,2.41
2023-04-20T03:41:23.838Z,2.44
2023-04-20T03:42:23.884Z,2.48
2023-04-20T03:43:23.929Z,2.50
2023-04-20T03:44:23.983Z,2.39
2023-04-20T03:45:24.012Z,2.42
2023-04-20T03:46:24.113Z,2.44
2023-04-20T03:47:24.085Z,2.39
2023-04-20T03:48:24.092Z,2.37
2023-04-20T03:49:24.161Z,2.33
2023-04-20T03:50:24.177Z,2.35
2023-04-20T03:51:24.243Z,2.37
2023-04-20T03:52:24.299Z,2.37
2023-04-20T03:53:24.340Z,2.34
2023-04-20T03:54:24.337Z,2.40
2023-04-20T03:55:24.524Z,2.41
2023-04-20T03:56:24.454Z,2.35
2023-04-20T03:57:24.488Z,2.38
2023-04-20T03:58:24.543Z,2.36
2023-04-20T03:59:24.647Z,2.35
2023-04-20T04:00:24.617Z,2.35
2023-04-20T04:01:24.641Z,2.35
2023-04-20T04:02:24.795Z,2.31
2023-04-20T04:03:24.889Z,2.34
2023-04-20T04:04:24.968Z,2.34
2023-04-20T04:05:24.898Z,2.32
2023-04-20T04:06:24.892Z,2.32
2023-04-20T04:07:24.899Z,2.34
2023-04-20T04:08:24.952Z,2.31
2023-04-20T04:09:24.986Z,2.29
2023-04-20T04:10:25.012Z,2.25
2023-04-20T04:11:25.080Z,2.25
2023-04-20T04:12:25.126Z,2.22
2023-04-20T04:13:25.154Z,2.23
2023-04-20T04:14:25.214Z,2.24
2023-04-20T04:15:25.237Z,2.26
2023-04-20T04:16:25.295Z,2.24
2023-04-20T04:17:25.332Z,2.22
2023-04-20T04:18:25.374Z,2.18
2023-04-20T04:19:25.393Z,2.23
2023-04-20T04:20:25.463Z,2.22
2023-04-20T04:21:25.506Z,2.22
2023-04-20T04:22:25.539Z,2.18
2023-04-20T04:23:25.576Z,2.21
2023-04-20T04:24:25.620Z,2.22
2023-04-20T04:25:25.691Z,2.19
2023-04-20T04:26:25.734Z,2.21
2023-04-20T04:27:25.745Z,2.17
2023-04-20T04:28:25.830Z,2.21
2023-04-20T04:29:25.868Z,2.18
2023-04-20T04:30:25.897Z,2.18
2023-04-20T04:31:26.010Z,2.18
2023-04-20T04:32:26.045Z,2.21
2023-04-20T04:33:26.047Z,2.16
2023-04-20T04:34:26.082Z,2.16
2023-04-20T04:35:26.228Z,2.14
2023-04-20T04:36:26.177Z,2.15
2023-04-20T04:37:26.214Z,2.15
2023-04-20T04:38:26.264Z,2.12
2023-04-20T04:39:26.316Z,2.12
2023-04-20T04:40:26.359Z,2.13
2023-04-20T04:41:26.416Z,2.13
2023-04-20T04:42:26.447Z,2.06
2023-04-20T04:43:26.507Z,2.10
2023-04-20T04:44:26.573Z,2.10
2023-04-20T04:45:26.585Z,2.09
2023-04-20T04:46:26.670Z,2.05
2023-04-20T04:47:26.720Z,2.05
2023-04-20T04:48:26.714Z,2.09
2023-04-20T04:49:26.832Z,2.10
2023-04-20T04:50:26.857Z,2.04
2023-04-20T04:51:26.839Z,2.06
2023-04-20T04:52:26.909Z,2.08
2023-04-20T04:53:26.949Z,2.06
2023-04-20T04:54:26.999Z,2.05
2023-04-20T04:55:26.990Z,2.08
2023-04-20T04:56:27.072Z,2.07
2023-04-20T04:57:27.103Z,1.98
2023-04-20T04:58:27.146Z,2.02
2023-04-20T04:59:27.209Z,2.05
2023-04-20T05:00:27.269Z,2.03
2023-04-20T05:01:27.290Z,2.01
2023-04-20T05:02:27.500Z,2.04
2023-04-20T05:03:27.476Z,1.99
2023-04-20T05:04:27.499Z,2.00
2023-04-20T05:05:27.473Z,2.03
2023-04-20T05:06:27.539Z,1.99
2023-04-20T05:07:27.533Z,1.93
2023-04-20T05:08:27.602Z,1.94
2023-04-20T05:09:27.632Z,1.95
2023-04-20T05:10:27.703Z,1.98
2023-04-20T05:11:27.717Z,1.93
2023-04-20T05:12:27.770Z,1.97
2023-04-20T05:13:27.792Z,1.95
2023-04-20T05:14:27.807Z,1.94
2023-04-20T05:15:27.879Z,1.87
2023-04-20T05:16:27.928Z,1.85
2023-04-20T05:17:27.912Z,1.89
2023-04-20T05:18:27.915Z,1.88
2023-04-20T05:19:27.935Z,1.86
2023-04-20T05:20:27.926Z,1.85
2023-04-20T05:21:27.937Z,1.81
2023-04-20T05:22:27.926Z,1.80
2023-04-20T05:23:27.966Z,1.76
2023-04-20T05:24:27.959Z,1.80
2023-04-20T05:25:27.962Z,1.75
2023-04-20T05:26:27.965Z,1.75
2023-04-20T05:27:27.958Z,1.72
2023-04-20T05:28:27.959Z,1.77
2023-04-20T05:29:27.982Z,1.72
2023-04-20T05:30:27.997Z,1.73
2023-04-20T05:31:28.083Z,1.71
2023-04-20T05:32:28.311Z,1.73
2023-04-20T05:33:28.139Z,1.70
2023-04-20T05:34:28.227Z,1.69
2023-04-20T05:35:28.243Z,1.71
2023-04-20T05:36:28.287Z,1.67
2023-04-20T05:37:28.377Z,1.67
2023-04-20T05:38:28.411Z,1.67
2023-04-20T05:39:28.501Z,1.66
2023-04-20T05:40:28.546Z,1.63
2023-04-20T05:41:28.582Z,1.63
2023-04-20T05:42:28.657Z,1.63
2023-04-20T05:43:28.731Z,1.63
2023-04-20T05:44:28.736Z,1.60
2023-04-20T05:45:28.838Z,1.64
2023-04-20T05:46:28.861Z,1.62
2023-04-20T05:47:28.985Z,1.59
2023-04-20T05:48:30.058Z,1.60
2023-04-20T05:49:29.018Z,1.61
2023-04-20T05:50:29.092Z,1.60
2023-04-20T05:51:29.116Z,1.59
2023-04-20T05:52:29.133Z,1.58
2023-04-20T05:53:29.217Z,1.58
2023-04-20T05:54:29.230Z,1.54
2023-04-20T05:55:29.280Z,1.60
2023-04-20T05:56:29.330Z,1.56
2023-04-20T05:57:29.419Z,1.58
2023-04-20T05:58:29.457Z,1.61
2023-04-20T05:59:29.479Z,1.59
2023-04-20T06:00:29.531Z,1.55
2023-04-20T06:01:29.643Z,1.55
2023-04-20T06:02:29.661Z,1.55
2023-04-20T06:03:29.904Z,1.56
2023-04-20T06:04:30.086Z,1.55
2023-04-20T06:05:29.756Z,1.54
2023-04-20T06:06:29.784Z,1.53
2023-04-20T06:07:29.826Z,1.54
2023-04-20T06:08:29.865Z,1.54
2023-04-20T06:09:29.873Z,1.54
2023-04-20T06:10:29.938Z,1.54
2023-04-20T06:11:29.954Z,1.53
2023-04-20T06:12:30.037Z,1.49
2023-04-20T06:13:30.068Z,1.51
2023-04-20T06:14:30.110Z,1.51
2023-04-20T06:15:30.140Z,1.51
2023-04-20T06:16:30.232Z,1.53
2023-04-20T06:17:30.291Z,1.51
2023-04-20T06:18:30.252Z,1.48
2023-04-20T06:19:30.292Z,1.52
2023-04-20T06:20:30.347Z,1.51
2023-04-20T06:21:30.419Z,1.52
2023-04-20T06:22:30.457Z,1.49
2023-04-20T06:23:30.512Z,1.49
2023-04-20T06:24:30.512Z,1.47
2023-04-20T06:25:30.611Z,1.48
2023-04-20T06:26:30.657Z,1.48
2023-04-20T06:27:30.706Z,1.47
2023-04-20T06:28:30.704Z,1.46
2023-04-20T06:29:30.756Z,1.49
2023-04-20T06:30:30.817Z,1.46
2023-04-20T06:31:30.893Z,1.46
2023-04-20T06:32:30.939Z,1.45
2023-04-20T06:33:30.974Z,1.46
2023-04-20T06:34:31.037Z,1.47
2023-04-20T06:35:31.106Z,1.46
2023-04-20T06:36:31.140Z,1.46
2023-04-20T06:37:31.198Z,1.45
2023-04-20T06:38:31.226Z,1.43
2023-04-20T06:39:31.286Z,1.45
2023-04-20T06:40:31.307Z,1.45
2023-04-20T06:41:31.368Z,1.47
2023-04-20T06:42:31.423Z,1.44
2023-04-20T06:43:31.489Z,1.43
2023-04-20T06:44:31.550Z,1.44
2023-04-20T06:45:33.584Z,1.43
2023-04-20T06:46:31.773Z,1.42
2023-04-20T06:47:31.801Z,1.43
2023-04-20T06:48:32.983Z,1.44
2023-04-20T06:49:31.887Z,1.42
2023-04-20T06:50:31.924Z,1.41
2023-04-20T06:51:32.029Z,1.44
2023-04-20T06:52:32.093Z,1.41
2023-04-20T06:53:32.132Z,1.44
2023-04-20T06:54:32.175Z,1.39
2023-04-20T06:55:32.236Z,1.44
2023-04-20T06:56:33.593Z,1.42
2023-04-20T06:57:32.478Z,1.43
2023-04-20T06:58:32.642Z,1.43
2023-04-20T06:59:32.627Z,1.41
2023-04-20T07:00:32.703Z,1.41
2023-04-20T07:01:32.850Z,1.42
2023-04-20T07:02:32.856Z,1.40
2023-04-20T07:03:33.034Z,1.39
2023-04-20T07:04:33.006Z,1.41
2023-04-20T07:05:32.973Z,1.39
2023-04-20T07:06:33.080Z,1.41
2023-04-20T07:07:33.963Z,1.39
2023-04-20T07:08:33.375Z,1.38
2023-04-20T07:09:33.245Z,1.41
2023-04-20T07:10:33.332Z,1.40
2023-04-20T07:11:33.365Z,1.39
2023-04-20T07:12:33.456Z,1.37
2023-04-20T07:13:34.135Z,1.38
2023-04-20T07:14:33.565Z,1.41
2023-04-20T07:15:33.649Z,1.40
2023-04-20T07:16:33.799Z,1.40
2023-04-20T07:17:33.847Z,1.39
2023-04-20T07:18:35.592Z,1.40
2023-04-20T07:19:33.759Z,1.40
2023-04-20T07:20:33.768Z,1.39
2023-04-20T07:21:33.737Z,1.40
2023-04-20T07:22:33.735Z,1.40
2023-04-20T07:23:33.723Z,1.40
2023-04-20T07:24:33.913Z,1.37
2023-04-20T07:25:33.740Z,1.39
2023-04-20T07:26:33.785Z,1.39
2023-04-20T07:27:33.811Z,1.38
2023-04-20T07:28:33.922Z,1.34
2023-04-20T07:29:34.199Z,1.39
2023-04-20T07:30:33.982Z,1.37
2023-04-20T07:31:35.440Z,1.36
2023-04-20T07:32:34.156Z,1.38
2023-04-20T07:33:34.204Z,1.35
2023-04-20T07:34:34.252Z,1.36
2023-04-20T07:35:34.319Z,1.37
2023-04-20T07:36:34.397Z,1.34
2023-04-20T07:37:34.443Z,1.35
2023-04-20T07:38:34.489Z,1.37
2023-04-20T07:39:34.545Z,1.37
2023-04-20T07:40:34.631Z,1.36
2023-04-20T07:41:34.634Z,1.34
2023-04-20T07:42:34.698Z,1.34
2023-04-20T07:43:34.749Z,1.35
2023-04-20T07:44:34.792Z,1.35
2023-04-20T07:45:34.957Z,1.34
2023-04-20T07:46:35.039Z,1.33
2023-04-20T07:47:34.971Z,1.39
2023-04-20T07:48:35.009Z,1.40
2023-04-20T07:49:35.071Z,1.45
2023-04-20T07:50:35.147Z,1.63
2023-04-20T07:51:35.170Z,1.74
2023-04-20T07:52:35.223Z,1.80
2023-04-20T07:53:35.226Z,1.75
2023-04-20T07:54:35.264Z,1.92
2023-04-20T07:56:09.090Z,0.50
2023-04-20T07:57:09.094Z,0.50
2023-04-20T07:58:09.095Z,0.50
2023-04-20T07:59:09.052Z,0.50
2023-04-20T08:00:09.068Z,0.50
2023-04-20T08:01:09.073Z,0.51
2023-04-20T08:02:09.235Z,0.56
2023-04-20T08:03:09.258Z,0.59
2023-04-20T08:04:09.190Z,0.52
2023-04-20T08:05:09.208Z,0.53
2023-04-20T08:06:09.021Z,0.55
2023-04-20T08:07:09.012Z,0.54
2023-04-20T08:08:09.026Z,0.54
2023-04-20T08:09:09.675Z,0.56
2023-04-20T08:10:09.038Z,0.57
2023-04-20T08:11:09.006Z,0.54
2023-04-20T08:12:08.997Z,0.54
2023-04-20T08:13:09.071Z,0.55
2023-04-20T08:14:09.319Z,0.55
2023-04-20T08:15:08.961Z,0.57
2023-04-20T08:16:08.987Z,0.57
2023-04-20T08:17:08.950Z,0.60
2023-04-20T08:18:09.019Z,0.62
2023-04-20T08:19:08.929Z,0.61
2023-04-20T08:20:08.932Z,0.61
2023-04-20T08:21:08.937Z,0.62
2023-04-20T08:22:08.904Z,0.62
2023-04-20T08:23:08.922Z,0.60
2023-04-20T08:24:08.949Z,0.60
2023-04-20T08:25:08.919Z,0.61
2023-04-20T08:26:08.872Z,0.59
2023-04-20T08:27:08.963Z,0.57
2023-04-20T08:28:12.174Z,0.58
2023-04-20T08:29:09.870Z,0.58
2023-04-20T08:30:08.889Z,0.58
2023-04-20T08:31:08.948Z,0.59
2023-04-20T08:32:08.858Z,0.60
2023-04-20T08:33:08.912Z,0.59
2023-04-20T08:34:08.888Z,0.60
2023-04-20T08:35:08.876Z,0.57
2023-04-20T08:36:08.817Z,0.57
2023-04-20T08:37:08.806Z,0.56
2023-04-20T08:38:08.793Z,0.53
2023-04-20T08:39:08.809Z,0.54
2023-04-20T08:40:08.785Z,0.56
2023-04-20T08:41:08.786Z,0.56
2023-04-20T08:42:08.799Z,0.55
2023-04-20T08:43:08.757Z,0.54
2023-04-20T08:44:08.827Z,0.54
2023-04-20T08:45:08.756Z,0.51
2023-04-20T08:46:08.830Z,0.57
2023-04-20T08:47:08.815Z,0.61
2023-04-20T08:48:08.774Z,0.63
2023-04-20T08:49:08.802Z,0.62
2023-04-20T08:50:08.773Z,0.67
2023-04-20T08:51:08.778Z,0.66
2023-04-20T08:52:08.779Z,0.70
2023-04-20T08:53:08.822Z,0.65
2023-04-20T08:54:08.835Z,0.66
2023-04-20T08:55:08.840Z,0.70
2023-04-20T08:56:08.813Z,0.72
2023-04-20T08:57:08.856Z,0.81
2023-04-20T08:58:08.859Z,0.84
2023-04-20T08:59:08.830Z,0.85
2023-04-20T09:00:09.202Z,0.91
2023-04-20T09:01:08.905Z,0.94
2023-04-20T09:02:09.023Z,0.98
2023-04-20T09:03:09.058Z,1.01
2023-04-20T09:04:09.041Z,1.04
2023-04-20T09:05:08.921Z,1.08
2023-04-20T09:06:08.889Z,1.08
2023-04-20T09:07:08.895Z,1.09
2023-04-20T09:08:08.926Z,1.13
2023-04-20T09:09:08.900Z,1.14
2023-04-20T09:10:08.910Z,1.14
2023-04-20T09:11:08.921Z,1.15
2023-04-20T09:12:08.914Z,1.17
2023-04-20T09:13:08.915Z,1.18
2023-04-20T09:14:08.989Z,1.19
2023-04-20T09:15:08.913Z,1.21
2023-04-20T09:16:08.973Z,1.21
2023-04-20T09:17:08.908Z,1.25
2023-04-20T09:18:08.970Z,1.30
2023-04-20T09:19:09.534Z,1.28
2023-04-20T09:20:08.895Z,1.32
2023-04-20T09:21:08.926Z,1.33
2023-04-20T09:22:08.959Z,1.35
2023-04-20T09:23:08.964Z,1.40
2023-04-20T09:24:09.006Z,1.41
2023-04-20T09:25:09.042Z,1.42
2023-04-20T09:26:09.093Z,1.48
2023-04-20T09:27:09.095Z,1.48
2023-04-20T09:28:09.788Z,1.52
2023-04-20T09:29:09.175Z,1.52
2023-04-20T09:30:09.237Z,1.55
2023-04-20T09:31:09.255Z,1.57
2023-04-20T09:32:09.318Z,1.57
2023-04-20T09:33:09.383Z,1.59
2023-04-20T09:34:09.350Z,1.65
2023-04-20T09:35:09.392Z,1.64
2023-04-20T09:36:09.396Z,1.66
2023-04-20T09:37:09.408Z,1.66
2023-04-20T09:38:09.443Z,1.71
2023-04-20T09:39:09.474Z,1.66
2023-04-20T09:40:09.557Z,1.67
2023-04-20T09:41:09.539Z,1.69
2023-04-20T09:42:09.576Z,1.75
2023-04-20T09:43:09.745Z,1.77
2023-04-20T09:44:09.646Z,1.77
2023-04-20T09:45:09.621Z,1.76
2023-04-20T09:46:09.719Z,1.77
2023-04-20T09:47:09.706Z,1.67
2023-04-20T09:48:09.756Z,1.61
2023-04-20T09:49:09.765Z,0.62
2023-04-20T09:50:22.977Z,0.76
2023-04-20T09:51:10.756Z,0.66
2023-04-20T09:52:09.755Z,0.42
2023-04-20T09:53:09.755Z,0.36
2023-04-20T09:54:09.769Z,0.39
2023-04-20T09:55:09.784Z,0.41
2023-04-20T09:56:09.744Z,0.52
2023-04-20T09:57:09.690Z,0.58
2023-04-20T09:58:09.719Z,0.63
2023-04-20T09:59:09.721Z,0.65
2023-04-20T10:00:09.762Z,0.69
2023-04-20T10:01:09.756Z,0.74
2023-04-20T10:02:09.794Z,0.79
2023-04-20T10:03:09.875Z,0.82
2023-04-20T10:04:09.897Z,0.89
2023-04-20T10:05:09.691Z,0.92
2023-04-20T10:06:09.686Z,0.95
2023-04-20T10:07:09.637Z,1.14
2023-04-20T10:08:09.668Z,1.23
2023-04-20T10:09:09.673Z,1.22
2023-04-20T10:10:09.688Z,1.27
2023-04-20T10:11:09.743Z,1.26
2023-04-20T10:12:09.835Z,1.30
2023-04-20T10:13:09.851Z,1.34
2023-04-20T10:14:09.912Z,1.34
2023-04-20T10:15:09.952Z,1.41
2023-04-20T10:16:09.979Z,1.45
2023-04-20T10:17:10.188Z,1.49
2023-04-20T10:18:10.126Z,1.51
2023-04-20T10:19:10.096Z,1.58
2023-04-20T10:20:10.149Z,1.62
2023-04-20T10:21:10.177Z,1.85
2023-04-20T10:22:10.213Z,1.81
2023-04-20T10:23:10.234Z,1.83
2023-04-20T10:24:10.285Z,1.94
2023-04-20T10:25:10.298Z,1.98
2023-04-20T10:26:10.305Z,2.06
2023-04-20T10:27:10.330Z,2.19
2023-04-20T10:28:10.396Z,2.29
2023-04-20T10:29:10.385Z,2.32
2023-04-20T10:30:10.417Z,2.16
2023-04-20T10:31:10.510Z,2.34
2023-04-20T10:32:10.462Z,2.55
2023-04-20T10:33:10.512Z,2.68
2023-04-20T10:34:10.529Z,2.81
2023-04-20T10:35:10.574Z,2.93
2023-04-20T10:36:10.592Z,2.95
2023-04-20T10:37:10.575Z,3.08
2023-04-20T10:38:10.579Z,3.04
2023-04-20T10:39:10.586Z,3.16
2023-04-20T10:40:10.606Z,3.18
2023-04-20T10:41:10.612Z,2.77
2023-04-20T10:42:10.613Z,2.60
2023-04-20T10:43:10.654Z,1.23
2023-04-20T10:44:10.683Z,0.53
2023-04-20T10:45:10.764Z,0.46
2023-04-20T10:46:10.769Z,0.41
2023-04-20T10:47:10.750Z,0.44
2023-04-20T10:48:10.843Z,0.44
2023-04-20T10:49:10.786Z,0.50
2023-04-20T10:50:10.835Z,0.51
2023-04-20T10:51:10.831Z,0.51
2023-04-20T10:52:10.883Z,0.46
2023-04-20T10:53:10.932Z,0.44
2023-04-20T10:54:10.923Z,0.51
2023-04-20T10:55:11.008Z,0.55
2023-04-20T10:56:11.049Z,0.57
2023-04-20T10:57:11.114Z,0.56
2023-04-20T10:58:11.156Z,0.48
2023-04-20T10:59:11.250Z,0.49
2023-04-20T11:00:11.221Z,0.51
2023-04-20T11:01:11.228Z,0.48
2023-04-20T11:02:11.299Z,0.34
2023-04-20T11:03:11.355Z,0.34
2023-04-20T11:04:11.338Z,0.34
2023-04-20T11:05:11.443Z,0.34
2023-04-20T11:06:11.387Z,0.34
2023-04-20T11:07:11.409Z,0.37
2023-04-20T11:08:11.618Z,0.36
2023-04-20T11:09:11.454Z,0.52
2023-04-20T11:10:11.488Z,0.52
2023-04-20T11:11:11.506Z,0.51
2023-04-20T11:12:11.512Z,0.46
2023-04-20T11:13:11.583Z,0.55
2023-04-20T11:14:11.621Z,0.59
2023-04-20T11:15:11.679Z,0.56
2023-04-20T11:16:11.670Z,0.62
2023-04-20T11:17:11.766Z,0.48
2023-04-20T11:18:11.773Z,0.48
2023-04-20T11:19:11.729Z,0.54
2023-04-20T11:20:11.765Z,0.62
2023-04-20T11:21:11.804Z,0.56
2023-04-20T11:22:11.807Z,0.50
2023-04-20T11:23:11.813Z,0.50
2023-04-20T11:24:11.891Z,0.54
2023-04-20T11:25:11.876Z,0.61
2023-04-20T11:26:11.919Z,0.62
2023-04-20T11:27:11.927Z,0.65
2023-04-20T11:28:11.998Z,0.75
2023-04-20T11:29:12.010Z,0.88
2023-04-20T11:30:12.033Z,1.05
2023-04-20T11:31:12.128Z,1.14
2023-04-20T11:32:12.260Z,1.27
2023-04-20T11:33:12.351Z,2.00
2023-04-20T11:34:12.182Z,1.80
2023-04-20T11:35:12.243Z,1.32
2023-04-20T11:36:12.230Z,1.67
2023-04-20T11:37:12.255Z,2.11
2023-04-20T11:38:12.235Z,2.59
2023-04-20T11:39:12.267Z,2.28
2023-04-20T11:40:12.270Z,1.81
2023-04-20T11:41:12.296Z,1.93
2023-04-20T11:42:12.321Z,1.78
2023-04-20T11:43:12.369Z,1.42
2023-04-20T11:44:12.376Z,1.53
2023-04-20T11:45:12.404Z,1.49
2023-04-20T11:46:12.526Z,1.23
2023-04-20T11:47:12.491Z,1.56
2023-04-20T11:48:12.518Z,1.99
2023-04-20T11:49:12.510Z,2.20
2023-04-20T11:50:12.568Z,2.04
2023-04-20T11:51:12.553Z,1.74
2023-04-20T11:52:12.533Z,1.76
2023-04-20T11:53:12.561Z,2.06
2023-04-20T11:54:12.600Z,2.13
2023-04-20T11:55:12.665Z,2.82
2023-04-20T11:56:12.681Z,2.74
2023-04-20T11:57:12.707Z,3.11
2023-04-20T11:58:12.791Z,3.85
2023-04-20T11:59:12.840Z,3.39
2023-04-20T12:00:12.886Z,2.93
2023-04-20T12:01:12.942Z,3.26
2023-04-20T12:02:13.071Z,3.59
2023-04-20T12:03:13.314Z,3.23
2023-04-20T12:04:13.427Z,2.67
2023-04-20T12:05:13.335Z,2.62
2023-04-20T12:06:13.216Z,1.97
2023-04-20T12:07:13.220Z,2.00
2023-04-20T12:08:13.245Z,2.07
2023-04-20T12:09:13.354Z,1.75
2023-04-20T12:10:13.384Z,1.47
2023-04-20T12:11:13.395Z,1.40
2023-04-20T12:12:13.417Z,1.11
2023-04-20T12:13:13.490Z,0.96
2023-04-20T12:14:13.514Z,1.04
2023-04-20T12:15:13.559Z,1.13
2023-04-20T12:16:13.625Z,1.30
2023-04-20T12:17:13.567Z,1.52
2023-04-20T12:18:13.651Z,1.72
2023-04-20T12:19:13.685Z,1.85
2023-04-20T12:20:13.759Z,1.99
2023-04-20T12:21:13.687Z,2.19
2023-04-20T12:22:13.703Z,2.08
2023-04-20T12:23:13.716Z,2.08
2023-04-20T12:24:13.730Z,2.32
2023-04-20T12:25:13.829Z,2.09
2023-04-20T12:26:13.899Z,2.14
2023-04-20T12:27:13.924Z,2.01
2023-04-20T12:28:14.016Z,2.87
2023-04-20T12:29:13.997Z,2.78
2023-04-20T12:30:14.062Z,2.62
2023-04-20T12:31:14.243Z,3.22
2023-04-20T12:32:14.168Z,3.66
2023-04-20T12:33:14.265Z,4.55
2023-04-20T12:34:14.269Z,6.22
2023-04-20T12:35:14.336Z,6.77
2023-04-20T12:36:14.356Z,6.97
2023-04-20T12:37:14.381Z,6.97
2023-04-20T12:38:14.780Z,7.38
2023-04-20T12:39:14.405Z,8.31
2023-04-20T12:40:14.433Z,8.13
2023-04-20T12:41:14.457Z,8.43
2023-04-20T12:42:14.459Z,8.63
2023-04-20T12:43:14.429Z,8.92
2023-04-20T12:44:14.468Z,9.34
2023-04-20T12:45:14.465Z,9.42
2023-04-20T12:46:14.509Z,9.96
2023-04-20T12:47:14.482Z,10.07
2023-04-20T12:48:14.605Z,10.27
2023-04-20T12:49:14.615Z,10.79
2023-04-20T12:50:14.688Z,9.28
2023-04-20T12:51:14.708Z,8.31
2023-04-20T12:52:14.738Z,9.17
2023-04-20T12:53:14.820Z,9.45
2023-04-20T12:54:14.880Z,9.99
2023-04-20T12:55:14.915Z,9.91
2023-04-20T12:56:14.974Z,10.90
2023-04-20T12:57:15.061Z,10.59
2023-04-20T12:58:15.091Z,10.31
2023-04-20T12:59:15.190Z,9.02
2023-04-20T13:00:22.411Z,9.60
2023-04-20T13:01:15.301Z,9.65
2023-04-20T13:02:15.320Z,9.77
2023-04-20T13:03:15.353Z,9.90
2023-04-20T13:04:15.555Z,10.36
2023-04-20T13:05:15.199Z,11.03
2023-04-20T13:06:15.162Z,11.31
2023-04-20T13:07:15.213Z,10.98
2023-04-20T13:08:15.202Z,11.41
2023-04-20T13:09:15.187Z,10.55
2023-04-20T13:10:15.170Z,11.25
2023-04-20T13:11:15.142Z,10.92
2023-04-20T13:12:15.159Z,11.48
2023-04-20T13:13:15.167Z,10.89
2023-04-20T13:14:15.125Z,11.28
2023-04-20T13:15:16.173Z,11.48
2023-04-20T13:16:15.268Z,11.27
2023-04-20T13:17:15.112Z,11.65
2023-04-20T13:18:15.105Z,10.53